createdAt,value
2018-08-25T00:00:26.699Z,17.39
2018-08-25T00:02:54.488Z,17.37
2018-08-25T00:05:22.269Z,17.35
2018-08-25T00:07:50.043Z,17.35
2018-08-25T00:10:17.949Z,17.29
2018-08-25T00:12:45.750Z,17.31
2018-08-25T00:15:13.566Z,17.31
2018-08-25T00:17:41.387Z,17.27
2018-08-25T00:20:09.303Z,17.22
2018-08-25T00:22:37.122Z,17.14
2018-08-25T00:25:04.952Z,17.07
2018-08-25T00:27:32.803Z,17.15
2018-08-25T00:30:00.615Z,17.09
2018-08-25T00:32:28.362Z,17.06
2018-08-25T00:34:56.151Z,17.07
2018-08-25T00:37:23.944Z,17.03
2018-08-25T00:39:51.703Z,16.98
2018-08-25T00:42:19.563Z,16.97
2018-08-25T00:44:47.567Z,16.88
2018-08-25T00:47:15.512Z,16.83
2018-08-25T00:49:43.340Z,16.89
2018-08-25T00:52:11.183Z,16.82
2018-08-25T00:54:39.061Z,16.78
2018-08-25T00:57:06.863Z,16.88
2018-08-25T00:59:34.699Z,16.85
2018-08-25T01:02:02.532Z,16.76
2018-08-25T01:04:30.275Z,16.72
2018-08-25T01:06:58.115Z,16.68
2018-08-25T01:09:25.899Z,16.73
2018-08-25T01:11:53.704Z,16.56
2018-08-25T01:14:21.488Z,16.55
2018-08-25T01:16:49.274Z,16.50
2018-08-25T01:19:17.118Z,16.50
2018-08-25T01:21:45.023Z,16.47
2018-08-25T01:24:12.800Z,16.48
2018-08-25T01:26:40.648Z,16.36
2018-08-25T01:29:08.388Z,16.44
2018-08-25T01:31:36.220Z,16.43
2018-08-25T01:34:04.097Z,16.35
2018-08-25T01:36:31.955Z,16.36
2018-08-25T01:38:59.831Z,16.36
2018-08-25T01:41:27.648Z,16.30
2018-08-25T01:43:55.465Z,16.22
2018-08-25T01:46:23.313Z,16.26
2018-08-25T01:48:51.059Z,16.24
2018-08-25T01:51:18.815Z,16.24
2018-08-25T01:53:46.628Z,16.28
2018-08-25T01:56:14.420Z,16.28
2018-08-25T01:58:42.296Z,16.21
2018-08-25T02:01:10.139Z,16.31
2018-08-25T02:03:37.844Z,16.19
2018-08-25T02:06:05.719Z,16.18
2018-08-25T02:08:33.519Z,16.18
2018-08-25T02:11:01.356Z,16.18
2018-08-25T02:13:29.159Z,16.17
2018-08-25T02:15:57.045Z,16.14
2018-08-25T02:18:24.856Z,16.10
2018-08-25T02:20:52.635Z,16.13
2018-08-25T02:23:20.456Z,16.02
2018-08-25T02:25:48.339Z,15.99
2018-08-25T02:28:16.895Z,15.95
2018-08-25T02:30:44.623Z,15.82
2018-08-25T02:33:12.401Z,15.78
2018-08-25T02:35:40.283Z,15.75
2018-08-25T02:38:08.051Z,15.72
2018-08-25T02:40:35.928Z,15.60
2018-08-25T02:43:03.856Z,15.60
2018-08-25T02:45:31.708Z,15.59
2018-08-25T02:47:59.473Z,15.54
2018-08-25T02:50:27.267Z,15.50
2018-08-25T02:52:55.115Z,15.51
2018-08-25T02:55:22.921Z,15.41
2018-08-25T02:57:50.809Z,15.34
2018-08-25T03:00:18.596Z,15.33
2018-08-25T03:02:46.402Z,15.23
2018-08-25T03:05:14.212Z,15.22
2018-08-25T03:07:41.912Z,15.23
2018-08-25T03:10:09.775Z,15.11
2018-08-25T03:12:37.579Z,15.08
2018-08-25T03:15:05.371Z,15.11
2018-08-25T03:17:33.187Z,15.00
2018-08-25T03:20:01.043Z,14.96
2018-08-25T03:22:28.839Z,14.94
2018-08-25T03:24:56.634Z,14.90
2018-08-25T03:27:24.395Z,14.97
2018-08-25T03:29:52.207Z,14.93
2018-08-25T03:32:20.032Z,14.91
2018-08-25T03:34:47.879Z,14.91
2018-08-25T03:37:15.660Z,14.88
2018-08-25T03:39:43.507Z,14.92
2018-08-25T03:42:11.352Z,14.90
2018-08-25T03:44:39.181Z,14.88
2018-08-25T03:47:07.006Z,14.87
2018-08-25T03:49:34.817Z,14.85
2018-08-25T03:52:02.564Z,14.87
2018-08-25T03:54:30.344Z,14.78
2018-08-25T03:56:58.160Z,14.70
2018-08-25T03:59:25.923Z,14.80
2018-08-25T04:01:53.727Z,14.71
2018-08-25T04:04:21.575Z,14.60
2018-08-25T04:06:49.412Z,14.52
2018-08-25T04:09:17.279Z,14.49
2018-08-25T04:11:45.085Z,14.48
2018-08-25T04:14:13.020Z,14.39
2018-08-25T04:16:40.846Z,14.41
2018-08-25T04:19:19.316Z,14.35
2018-08-25T04:21:47.699Z,14.33
2018-08-25T04:24:15.560Z,14.31
2018-08-25T04:26:43.372Z,14.28
2018-08-25T04:29:11.356Z,14.34
2018-08-25T04:31:39.108Z,14.41
2018-08-25T04:34:06.904Z,14.40
2018-08-25T04:36:34.811Z,14.33
2018-08-25T04:39:03.848Z,14.30
2018-08-25T04:41:31.632Z,14.34
2018-08-25T04:43:59.446Z,14.31
2018-08-25T04:46:27.339Z,14.46
2018-08-25T04:48:55.108Z,14.46
2018-08-25T04:51:22.963Z,14.48
2018-08-25T04:53:50.792Z,14.52
2018-08-25T04:56:18.600Z,14.53
2018-08-25T04:58:46.334Z,14.44
2018-08-25T05:01:14.144Z,14.44
2018-08-25T05:03:48.807Z,14.52
2018-08-25T05:06:16.627Z,14.57
2018-08-25T05:08:44.658Z,14.58
2018-08-25T05:11:12.404Z,14.66
2018-08-25T05:13:40.180Z,14.66
2018-08-25T05:16:08.117Z,14.72
2018-08-25T05:18:35.944Z,14.74
2018-08-25T05:21:03.801Z,14.78
2018-08-25T05:23:31.595Z,14.81
2018-08-25T05:25:59.336Z,14.88
2018-08-25T05:28:27.076Z,14.90
2018-08-25T05:30:54.856Z,14.90
2018-08-25T05:33:22.611Z,14.94
2018-08-25T05:35:50.380Z,14.92
2018-08-25T05:38:18.952Z,14.95
2018-08-25T05:40:46.772Z,15.00
2018-08-25T05:43:14.731Z,15.03
2018-08-25T05:45:42.519Z,15.06
2018-08-25T05:48:10.361Z,15.11
2018-08-25T05:50:38.147Z,15.10
2018-08-25T05:53:06.212Z,15.14
2018-08-25T05:55:34.035Z,15.17
2018-08-25T05:58:01.834Z,15.18
2018-08-25T06:00:29.692Z,15.18
2018-08-25T06:02:57.636Z,15.18
2018-08-25T06:05:25.415Z,15.15
2018-08-25T06:07:53.160Z,15.08
2018-08-25T06:10:21.264Z,14.99
2018-08-25T06:12:49.030Z,14.81
2018-08-25T06:15:16.769Z,14.63
2018-08-25T06:17:44.799Z,14.59
2018-08-25T06:20:12.568Z,14.44
2018-08-25T06:22:40.315Z,14.34
2018-08-25T06:25:08.799Z,14.25
2018-08-25T06:27:36.928Z,14.21
2018-08-25T06:30:05.134Z,14.07
2018-08-25T06:32:32.949Z,14.01
2018-08-25T06:35:00.839Z,13.93
2018-08-25T06:37:28.731Z,13.89
2018-08-25T06:39:56.556Z,13.90
2018-08-25T06:42:24.399Z,13.79
2018-08-25T06:44:52.289Z,13.69
2018-08-25T06:47:20.340Z,13.65
2018-08-25T06:49:48.132Z,13.63
2018-08-25T06:52:16.059Z,13.56
2018-08-25T06:54:43.856Z,13.58
2018-08-25T06:57:11.788Z,13.53
2018-08-25T06:59:39.743Z,13.47
2018-08-25T07:02:07.503Z,13.53
2018-08-25T07:04:35.323Z,13.47
2018-08-25T07:07:03.197Z,13.46
2018-08-25T07:09:31.166Z,13.47
2018-08-25T07:11:58.983Z,13.50
2018-08-25T07:14:26.782Z,13.51
2018-08-25T07:16:54.583Z,13.58
2018-08-25T07:19:22.355Z,13.66
2018-08-25T07:21:50.092Z,13.64
2018-08-25T07:24:21.161Z,13.64
2018-08-25T07:26:49.365Z,13.69
2018-08-25T07:29:17.175Z,13.71
2018-08-25T07:31:44.971Z,13.68
2018-08-25T07:34:12.716Z,13.68
2018-08-25T07:36:40.574Z,13.70
2018-08-25T07:39:10.951Z,13.72
2018-08-25T07:41:38.945Z,13.78
2018-08-25T07:44:06.800Z,13.81
2018-08-25T07:46:34.556Z,13.84
2018-08-25T07:49:02.360Z,13.86
2018-08-25T07:51:30.107Z,13.92
2018-08-25T07:53:57.866Z,13.94
2018-08-25T07:56:25.619Z,13.98
2018-08-25T07:58:53.492Z,14.04
2018-08-25T08:01:21.278Z,14.10
2018-08-25T08:03:55.848Z,14.12
2018-08-25T08:06:23.741Z,14.16
2018-08-25T08:08:51.542Z,14.34
2018-08-25T08:11:19.375Z,14.45
2018-08-25T08:13:47.223Z,14.61
2018-08-25T08:16:15.030Z,14.65
2018-08-25T08:18:42.795Z,14.78
2018-08-25T08:21:10.567Z,14.89
2018-08-25T08:23:38.417Z,14.91
2018-08-25T08:26:06.255Z,14.88
2018-08-25T08:28:34.056Z,14.93
2018-08-25T08:31:01.851Z,14.97
2018-08-25T08:33:29.683Z,15.08
2018-08-25T08:35:57.538Z,15.15
2018-08-25T08:38:25.397Z,15.24
2018-08-25T08:40:53.211Z,15.39
2018-08-25T08:43:21.013Z,15.57
2018-08-25T08:45:48.827Z,15.81
2018-08-25T08:48:16.700Z,15.71
2018-08-25T08:50:44.504Z,15.89
2018-08-25T08:53:12.321Z,16.00
2018-08-25T08:55:40.158Z,16.09
2018-08-25T08:58:08.008Z,16.16
2018-08-25T09:00:35.806Z,16.28
2018-08-25T09:03:03.615Z,16.37
2018-08-25T09:05:31.421Z,16.62
2018-08-25T09:07:59.223Z,16.65
2018-08-25T09:10:27.043Z,16.53
2018-08-25T09:12:54.799Z,16.37
2018-08-25T09:15:22.560Z,16.35
2018-08-25T09:17:50.323Z,16.34
2018-08-25T09:20:18.107Z,16.32
2018-08-25T09:22:45.955Z,16.27
2018-08-25T09:25:13.788Z,16.40
2018-08-25T09:27:41.576Z,16.59
2018-08-25T09:30:09.419Z,16.73
2018-08-25T09:32:37.211Z,16.79
2018-08-25T09:35:05.051Z,16.67
2018-08-25T09:37:33.095Z,16.64
2018-08-25T09:40:00.976Z,16.62
2018-08-25T09:42:28.744Z,16.23
2018-08-25T09:44:56.487Z,16.04
2018-08-25T09:47:24.228Z,16.05
2018-08-25T09:49:52.040Z,16.17
2018-08-25T09:52:19.864Z,16.19
2018-08-25T09:54:47.615Z,16.25
2018-08-25T09:57:15.439Z,16.26
2018-08-25T09:59:43.224Z,16.43
2018-08-25T10:02:11.075Z,16.65
2018-08-25T10:04:38.840Z,16.83
2018-08-25T10:07:06.705Z,16.92
2018-08-25T10:09:34.544Z,17.21
2018-08-25T10:12:02.327Z,17.37
2018-08-25T10:14:30.096Z,17.45
2018-08-25T10:16:57.985Z,17.46
2018-08-25T10:19:25.770Z,17.52
2018-08-25T10:21:53.490Z,17.56
2018-08-25T10:24:21.240Z,17.58
2018-08-25T10:26:49.020Z,17.48
2018-08-25T10:29:16.801Z,17.54
2018-08-25T10:31:44.642Z,17.44
2018-08-25T10:34:12.507Z,17.57
2018-08-25T10:36:40.500Z,17.54
2018-08-25T10:39:10.459Z,17.69
2018-08-25T10:41:38.366Z,17.72
2018-08-25T10:44:06.707Z,17.84
2018-08-25T10:46:34.787Z,17.95
2018-08-25T10:49:02.563Z,18.07
2018-08-25T10:51:30.675Z,18.39
2018-08-25T10:53:58.497Z,18.84
2018-08-25T10:56:26.315Z,19.43
2018-08-25T10:58:54.125Z,19.50
2018-08-25T11:01:21.923Z,20.12
2018-08-25T11:03:49.763Z,20.75
2018-08-25T11:06:17.583Z,21.78
2018-08-25T11:08:45.435Z,21.72
2018-08-25T11:11:13.308Z,22.01
2018-08-25T11:13:41.112Z,21.65
2018-08-25T11:16:08.937Z,21.75
2018-08-25T11:18:36.779Z,22.28
2018-08-25T11:21:04.723Z,22.27
2018-08-25T11:23:32.483Z,22.15
2018-08-25T11:26:00.212Z,22.61
2018-08-25T11:28:27.999Z,23.18
2018-08-25T11:30:55.775Z,23.18
2018-08-25T11:33:23.600Z,23.82
2018-08-25T11:35:51.408Z,23.98
2018-08-25T11:38:19.179Z,24.40
2018-08-25T11:40:46.979Z,24.18
2018-08-25T11:43:14.802Z,24.67
2018-08-25T11:45:42.536Z,24.62
2018-08-25T11:48:10.406Z,25.10
2018-08-25T11:50:38.208Z,25.47
2018-08-25T11:53:06.073Z,25.13
2018-08-25T11:55:33.930Z,24.66
2018-08-25T11:58:01.883Z,24.41
2018-08-25T12:00:29.771Z,24.45
2018-08-25T12:02:57.588Z,24.89
2018-08-25T12:05:25.296Z,25.02
2018-08-25T12:07:53.144Z,24.66
2018-08-25T12:10:20.956Z,25.36
2018-08-25T12:12:48.722Z,25.85
2018-08-25T12:15:16.487Z,26.00
2018-08-25T12:17:44.303Z,26.06
2018-08-25T12:20:12.180Z,26.07
2018-08-25T12:22:39.883Z,26.21
2018-08-25T12:25:07.952Z,26.45
2018-08-25T12:27:42.956Z,26.48
2018-08-25T12:30:11.268Z,25.88
2018-08-25T12:32:39.100Z,25.52
2018-08-25T12:35:06.994Z,25.43
2018-08-25T12:37:34.820Z,25.43
2018-08-25T12:40:02.881Z,25.45
2018-08-25T12:42:30.755Z,25.62
2018-08-25T12:45:01.981Z,25.79
2018-08-25T12:47:29.735Z,26.07
2018-08-25T12:49:57.935Z,26.14
2018-08-25T12:52:25.722Z,26.25
2018-08-25T12:54:53.599Z,25.85
2018-08-25T12:57:21.724Z,25.84
2018-08-25T12:59:49.916Z,26.14
2018-08-25T13:02:17.716Z,26.44
2018-08-25T13:04:45.547Z,25.78
2018-08-25T13:07:14.181Z,26.04
2018-08-25T13:09:42.907Z,25.81
2018-08-25T13:12:11.439Z,25.82
2018-08-25T13:14:42.416Z,25.81
2018-08-25T13:17:22.183Z,25.68
2018-08-25T13:19:51.964Z,25.35
2018-08-25T13:22:19.791Z,25.05
2018-08-25T13:24:47.670Z,25.04
2018-08-25T13:27:18.567Z,25.09
2018-08-25T13:29:46.343Z,25.07
2018-08-25T13:32:14.274Z,24.95
2018-08-25T13:34:42.223Z,24.80
2018-08-25T13:37:10.825Z,24.86
2018-08-25T13:39:38.570Z,24.73
2018-08-25T13:42:06.767Z,24.68
2018-08-25T13:44:34.628Z,24.46
2018-08-25T13:47:02.475Z,24.50
2018-08-25T13:49:30.285Z,24.46
2018-08-25T13:51:58.076Z,24.31
2018-08-25T13:54:26.918Z,24.18
2018-08-25T13:56:54.724Z,24.23
2018-08-25T13:59:22.520Z,24.17
2018-08-25T14:01:50.411Z,24.19
2018-08-25T14:04:18.375Z,24.05
2018-08-25T14:06:46.186Z,24.12
2018-08-25T14:09:14.040Z,23.92
2018-08-25T14:11:41.884Z,23.90
2018-08-25T14:14:09.756Z,23.85
2018-08-25T14:16:37.547Z,23.76
2018-08-25T14:19:05.367Z,23.84
2018-08-25T14:21:33.187Z,23.81
2018-08-25T14:24:00.967Z,23.76
2018-08-25T14:26:28.852Z,23.77
2018-08-25T14:28:56.697Z,23.74
2018-08-25T14:31:24.416Z,23.73
2018-08-25T14:33:52.144Z,23.31
2018-08-25T14:36:20.273Z,23.46
2018-08-25T14:38:47.980Z,23.41
2018-08-25T14:41:15.803Z,23.14
2018-08-25T14:43:43.731Z,23.15
2018-08-25T14:46:11.703Z,23.30
2018-08-25T14:48:39.572Z,23.32
2018-08-25T14:51:07.843Z,23.39
2018-08-25T14:53:42.173Z,23.37
2018-08-25T14:56:11.237Z,23.48
2018-08-25T14:58:39.055Z,23.48
2018-08-25T15:01:06.912Z,23.55
2018-08-25T15:03:34.634Z,23.53
2018-08-25T15:06:02.374Z,23.34
2018-08-25T15:08:30.702Z,23.27
2018-08-25T15:10:58.795Z,23.27
2018-08-25T15:13:26.638Z,23.21
2018-08-25T15:15:58.697Z,23.30
2018-08-25T15:18:37.835Z,23.36
2018-08-25T15:21:06.096Z,23.25
2018-08-25T15:23:33.921Z,23.07
2018-08-25T15:26:02.247Z,23.18
2018-08-25T15:28:30.034Z,23.12
2018-08-25T15:30:57.953Z,23.06
2018-08-25T15:33:25.695Z,23.06
2018-08-25T15:35:53.563Z,22.76
2018-08-25T15:38:21.344Z,22.69
2018-08-25T15:40:49.168Z,22.71
2018-08-25T15:43:17.012Z,22.64
2018-08-25T15:45:44.808Z,22.53
2018-08-25T15:48:12.736Z,22.43
2018-08-25T15:50:40.834Z,22.33
2018-08-25T15:53:08.626Z,22.24
2018-08-25T15:55:36.451Z,22.07
2018-08-25T15:58:04.723Z,22.25
2018-08-25T16:00:37.601Z,22.30
2018-08-25T16:03:05.552Z,22.20
2018-08-25T16:05:36.461Z,22.12
2018-08-25T16:08:04.540Z,21.91
2018-08-25T16:10:34.970Z,21.96
2018-08-25T16:13:02.836Z,21.99
2018-08-25T16:15:30.934Z,21.91
2018-08-25T16:17:58.860Z,21.86
2018-08-25T16:20:26.651Z,21.88
2018-08-25T16:22:54.480Z,21.83
2018-08-25T16:25:22.956Z,21.79
2018-08-25T16:27:50.704Z,21.67
2018-08-25T16:30:18.761Z,21.46
2018-08-25T16:32:46.697Z,21.43
2018-08-25T16:35:15.184Z,21.35
2018-08-25T16:37:43.088Z,21.33
2018-08-25T16:40:19.673Z,21.34
2018-08-25T16:42:51.748Z,21.37
2018-08-25T16:45:19.624Z,21.26
2018-08-25T16:47:47.530Z,21.11
2018-08-25T16:50:15.475Z,21.15
2018-08-25T16:52:43.336Z,21.13
2018-08-25T16:55:11.160Z,21.07
2018-08-25T16:57:39.630Z,21.04
2018-08-25T17:00:07.924Z,20.96
2018-08-25T17:02:35.974Z,20.75
2018-08-25T17:05:03.922Z,20.77
2018-08-25T17:07:31.704Z,20.74
2018-08-25T17:09:59.528Z,20.63
2018-08-25T17:12:27.292Z,20.53
2018-08-25T17:14:55.039Z,20.36
2018-08-25T17:17:23.127Z,20.38
2018-08-25T17:19:50.888Z,20.31
2018-08-25T17:22:18.685Z,20.31
2018-08-25T17:24:46.533Z,20.30
2018-08-25T17:27:14.543Z,20.27
2018-08-25T17:29:42.390Z,20.15
2018-08-25T17:32:11.347Z,20.13
2018-08-25T17:34:39.167Z,19.99
2018-08-25T17:37:07.106Z,19.97
2018-08-25T17:39:34.911Z,19.82
2018-08-25T17:42:02.676Z,19.84
2018-08-25T17:44:30.475Z,19.69
2018-08-25T17:46:58.292Z,19.61
2018-08-25T17:49:26.083Z,19.50
2018-08-25T17:51:53.915Z,19.51
2018-08-25T17:54:21.684Z,19.33
2018-08-25T17:56:49.567Z,19.40
2018-08-25T17:59:17.339Z,19.27
2018-08-25T18:01:45.192Z,19.28
2018-08-25T18:04:13.135Z,19.10
2018-08-25T18:06:40.880Z,19.04
2018-08-25T18:09:08.656Z,18.95
2018-08-25T18:11:36.575Z,18.75
2018-08-25T18:14:04.389Z,18.68
2018-08-25T18:16:32.223Z,18.46
2018-08-25T18:19:00.073Z,18.51
2018-08-25T18:21:27.953Z,18.34
2018-08-25T18:23:55.754Z,18.19
2018-08-25T18:26:23.625Z,17.99
2018-08-25T18:28:51.399Z,18.00
2018-08-25T18:31:19.244Z,17.87
2018-08-25T18:33:47.023Z,17.54
2018-08-25T18:36:14.743Z,17.41
2018-08-25T18:38:42.596Z,17.40
2018-08-25T18:41:10.355Z,17.29
2018-08-25T18:43:38.227Z,17.12
2018-08-25T18:46:06.047Z,16.96
2018-08-25T18:48:33.920Z,16.79
2018-08-25T18:51:01.839Z,16.84
2018-08-25T18:53:29.663Z,16.73
2018-08-25T18:55:57.512Z,16.50
2018-08-25T18:58:25.290Z,16.38
2018-08-25T19:00:53.094Z,16.44
2018-08-25T19:03:20.927Z,16.35
2018-08-25T19:05:48.791Z,16.13
2018-08-25T19:08:16.606Z,16.01
2018-08-25T19:10:45.110Z,16.19
2018-08-25T19:13:13.436Z,16.24
2018-08-25T19:15:41.228Z,16.08
2018-08-25T19:18:09.019Z,16.17
2018-08-25T19:20:36.787Z,16.13
2018-08-25T19:23:04.635Z,16.04
2018-08-25T19:25:32.450Z,15.99
2018-08-25T19:28:00.378Z,16.07
2018-08-25T19:30:28.191Z,15.98
2018-08-25T19:32:56.013Z,15.85
2018-08-25T19:35:23.846Z,15.89
2018-08-25T19:37:51.599Z,16.05
2018-08-25T19:40:19.312Z,15.99
2018-08-25T19:42:47.124Z,15.91
2018-08-25T19:45:15.279Z,15.81
2018-08-25T19:47:43.124Z,15.81
2018-08-25T19:50:10.988Z,15.72
2018-08-25T19:52:38.823Z,15.73
2018-08-25T19:55:06.656Z,15.61
2018-08-25T19:57:34.401Z,15.76
2018-08-25T20:00:02.265Z,15.55
2018-08-25T20:02:31.244Z,15.51
2018-08-25T20:04:59.092Z,15.49
2018-08-25T20:07:26.879Z,15.62
2018-08-25T20:09:55.248Z,15.65
2018-08-25T20:12:23.076Z,15.57
2018-08-25T20:14:50.976Z,15.73
2018-08-25T20:17:18.776Z,15.76
2018-08-25T20:19:46.686Z,15.68
2018-08-25T20:22:14.965Z,15.66
2018-08-25T20:24:42.974Z,15.66
2018-08-25T20:27:11.344Z,15.70
2018-08-25T20:29:39.095Z,15.64
2018-08-25T20:32:06.956Z,15.55
2018-08-25T20:34:34.802Z,15.65
2018-08-25T20:37:02.597Z,15.56
2018-08-25T20:39:31.230Z,15.53
2018-08-25T20:41:59.075Z,15.49
2018-08-25T20:44:26.855Z,15.43
2018-08-25T20:46:54.620Z,15.46
2018-08-25T20:49:22.459Z,15.45
2018-08-25T20:51:50.952Z,15.44
2018-08-25T20:54:19.045Z,15.40
2018-08-25T20:56:47.214Z,15.34
2018-08-25T20:59:15.020Z,15.35
2018-08-25T21:01:42.745Z,15.24
2018-08-25T21:04:10.605Z,15.34
2018-08-25T21:06:38.408Z,15.37
2018-08-25T21:09:08.668Z,15.37
2018-08-25T21:11:37.512Z,15.25
2018-08-25T21:14:05.788Z,15.28
2018-08-25T21:16:34.526Z,15.29
2018-08-25T21:19:02.655Z,15.17
2018-08-25T21:21:31.845Z,15.21
2018-08-25T21:23:59.771Z,15.18
2018-08-25T21:26:27.573Z,15.16
2018-08-25T21:28:56.279Z,15.14
2018-08-25T21:31:24.100Z,15.04
2018-08-25T21:33:51.892Z,15.10
2018-08-25T21:36:19.723Z,15.03
2018-08-25T21:38:47.858Z,15.09
2018-08-25T21:41:15.692Z,15.05
2018-08-25T21:43:43.487Z,15.08
2018-08-25T21:46:11.284Z,14.93
2018-08-25T21:48:39.372Z,15.06
2018-08-25T21:51:11.979Z,15.02
2018-08-25T21:53:40.010Z,14.94
2018-08-25T21:56:08.318Z,14.99
2018-08-25T21:58:36.124Z,14.93
2018-08-25T22:01:03.950Z,15.02
2018-08-25T22:03:31.741Z,14.89
2018-08-25T22:05:59.557Z,14.80
2018-08-25T22:08:27.359Z,14.85
2018-08-25T22:10:59.783Z,14.88
2018-08-25T22:13:28.588Z,14.82
2018-08-25T22:15:56.411Z,14.81
2018-08-25T22:18:24.208Z,14.58
2018-08-25T22:20:52.056Z,14.57
2018-08-25T22:23:19.850Z,14.70
2018-08-25T22:25:48.338Z,14.69
2018-08-25T22:28:16.268Z,14.71
2018-08-25T22:30:44.499Z,14.65
2018-08-25T22:33:12.252Z,14.52
2018-08-25T22:35:40.043Z,14.54
2018-08-25T22:38:07.904Z,14.63
2018-08-25T22:40:43.027Z,14.55
2018-08-25T22:43:10.859Z,14.54
2018-08-25T22:45:38.619Z,14.47
2018-08-25T22:48:06.414Z,14.48
2018-08-25T22:50:34.215Z,14.45
2018-08-25T22:53:01.964Z,14.46
2018-08-25T22:55:29.829Z,14.43
2018-08-25T22:57:58.053Z,14.46
2018-08-25T23:03:00.601Z,14.48
2018-08-25T23:05:28.443Z,14.44
2018-08-25T23:08:02.664Z,14.43
2018-08-25T23:10:42.518Z,14.43
2018-08-25T23:13:13.759Z,14.35
2018-08-25T23:15:41.555Z,14.39
2018-08-25T23:18:09.351Z,14.39
2018-08-25T23:20:37.119Z,14.28
2018-08-25T23:23:04.971Z,14.21
2018-08-25T23:25:32.819Z,14.32
2018-08-25T23:28:01.476Z,14.25
2018-08-25T23:30:29.328Z,14.19
2018-08-25T23:32:57.123Z,14.08
2018-08-25T23:35:24.952Z,14.02
2018-08-25T23:37:52.774Z,13.97
2018-08-25T23:40:20.603Z,13.99
2018-08-25T23:42:48.447Z,13.93
2018-08-25T23:45:16.271Z,13.93
2018-08-25T23:47:44.049Z,13.84
2018-08-25T23:50:11.790Z,13.71
2018-08-25T23:52:39.594Z,13.70
2018-08-25T23:55:07.878Z,13.64
2018-08-25T23:57:35.635Z,13.45
